Time;durP1;ratioP1;P1;durP2;ratioP2;P2;SDS_P1;SDS_P2;PMS_P1;PMS_P2;Temp;Humidity;BMP_temperature;BMP_pressure;BME280_temperature;BME280_humidity;BME280_pressure;Samples;Min_cycle;Max_cycle;Signal;HPM_P1;HPM_P2
2023/09/22 00:02:35;;;;;;;16.55;11.57;;;;;;;14.08;61.86;101120.51;1734701;82;21334;-60
2023/09/22 00:05:41;;;;;;;18.05;11.03;;;;;;;14.01;61.97;101118.99;1733676;78;21352;-60
2023/09/22 00:08:48;;;;;;;15.65;10.82;;;;;;;13.94;61.95;101121.28;1728213;82;21187;-60
2023/09/22 00:11:57;;;;;;;19.92;11.48;;;;;;;13.89;62.05;101130.59;1729300;81;21893;-60
2023/09/22 00:15:07;;;;;;;18.10;11.03;;;;;;;13.83;62.13;101128.52;1729831;82;21353;-60
2023/09/22 00:18:12;;;;;;;17.10;11.55;;;;;;;13.78;62.23;101123.56;1732404;82;21400;-60
2023/09/22 00:21:20;;;;;;;24.87;13.85;;;;;;;13.75;62.32;101130.80;1726816;82;21191;-60
2023/09/22 00:24:28;;;;;;;28.62;16.87;;;;;;;13.72;62.45;101133.04;1732162;81;21196;-61
2023/09/22 00:27:35;;;;;;;34.35;18.87;;;;;;;13.69;62.50;101137.53;1715541;82;21368;-61
2023/09/22 00:30:41;;;;;;;43.30;22.58;;;;;;;13.61;62.54;101138.42;1724475;82;21368;-60
2023/09/22 00:33:48;;;;;;;42.53;24.05;;;;;;;13.54;62.57;101138.27;1733021;82;21384;-60
2023/09/22 00:36:56;;;;;;;33.45;20.00;;;;;;;13.50;62.69;101134.16;1733765;82;21349;-60
2023/09/22 00:40:03;;;;;;;34.83;20.20;;;;;;;13.48;62.84;101143.61;1730870;81;21380;-61
2023/09/22 00:43:18;;;;;;;41.13;21.82;;;;;;;13.46;62.98;101137.45;1733671;82;21835;-61
2023/09/22 00:46:30;;;;;;;33.23;20.37;;;;;;;13.42;62.99;101141.57;1725838;82;21224;-60
2023/09/22 00:49:35;;;;;;;36.80;21.65;;;;;;;13.37;63.06;101142.61;1725759;82;21352;-60
2023/09/22 00:52:42;;;;;;;29.42;17.70;;;;;;;13.33;63.16;101139.34;1731394;81;21203;-61
2023/09/22 00:55:49;;;;;;;30.17;17.80;;;;;;;13.28;63.25;101139.55;1725210;82;21219;-61
2023/09/22 00:58:57;;;;;;;26.23;17.60;;;;;;;13.24;63.35;101134.91;1731881;82;21356;-61
2023/09/22 01:02:04;;;;;;;23.50;13.43;;;;;;;13.21;63.45;101135.77;1731614;81;21365;-61
2023/09/22 01:05:11;;;;;;;22.22;12.55;;;;;;;13.17;63.55;101131.66;1731752;82;21929;-61
2023/09/22 01:08:16;;;;;;;20.62;13.25;;;;;;;13.16;63.66;101134.08;1729123;83;21416;-61
2023/09/22 01:11:23;;;;;;;16.15;11.80;;;;;;;13.13;63.76;101133.89;1728224;82;21870;-61
2023/09/22 01:14:29;;;;;;;17.73;11.83;;;;;;;13.11;63.91;101133.20;1728851;82;21338;-61
2023/09/22 01:17:35;;;;;;;16.95;10.93;;;;;;;13.13;64.06;101139.39;1729177;83;21874;-61
2023/09/22 01:20:48;;;;;;;14.75;10.88;;;;;;;13.13;64.17;101140.77;1728952;83;21373;-61
2023/09/22 01:23:53;;;;;;;15.18;10.05;;;;;;;13.12;64.26;101139.56;1729520;83;21384;-61
2023/09/22 01:27:02;;;;;;;14.00;9.48;;;;;;;13.12;64.40;101141.81;1729215;83;21271;-60
2023/09/22 01:30:09;;;;;;;12.05;9.40;;;;;;;13.11;64.48;101142.82;1729304;82;21369;-61
2023/09/22 01:33:17;;;;;;;12.63;9.75;;;;;;;13.11;64.61;101148.31;1729364;83;21851;-61
2023/09/22 01:36:25;;;;;;;15.95;10.00;;;;;;;13.12;64.77;101141.81;1729411;82;22172;-60
2023/09/22 01:39:30;;;;;;;13.75;9.98;;;;;;;13.11;64.86;101142.82;1729295;82;21361;-60
2023/09/22 01:42:37;;;;;;;14.73;10.55;;;;;;;13.10;64.92;101147.98;1729331;83;21846;-59
2023/09/22 01:45:43;;;;;;;14.93;10.05;;;;;;;13.10;65.01;101145.23;1728879;83;21752;-59
2023/09/22 01:48:50;;;;;;;15.90;10.40;;;;;;;13.07;65.04;101140.09;1729160;83;21444;-59
2023/09/22 01:51:56;;;;;;;15.32;9.85;;;;;;;13.07;65.18;101142.84;1728876;82;21353;-59
2023/09/22 01:55:02;;;;;;;13.22;10.08;;;;;;;13.08;65.28;101143.17;1729314;82;21905;-59
2023/09/22 01:58:09;;;;;;;14.78;9.70;;;;;;;13.06;65.36;101141.13;1729105;82;21874;-61
2023/09/22 02:01:17;;;;;;;12.93;9.78;;;;;;;13.07;65.50;101140.59;1729362;83;21346;-60
2023/09/22 02:04:26;;;;;;;12.95;10.20;;;;;;;13.06;65.57;101135.64;1728944;83;21854;-61
2023/09/22 02:07:33;;;;;;;14.03;9.73;;;;;;;13.08;65.71;101142.33;1720727;82;21368;-60
2023/09/22 02:10:40;;;;;;;15.48;9.58;;;;;;;13.04;65.68;101144.56;1743056;82;21225;-59
2023/09/22 02:13:49;;;;;;;11.85;9.93;;;;;;;13.01;65.73;101140.79;1742991;82;21206;-60
2023/09/22 02:16:55;;;;;;;12.43;10.03;;;;;;;12.98;65.82;101136.98;1742858;82;21573;-59
2023/09/22 02:20:00;;;;;;;12.65;10.03;;;;;;;12.98;66.00;101143.85;1742946;81;21226;-57
2023/09/22 02:23:06;;;;;;;13.90;10.80;;;;;;;12.97;66.11;101142.11;1742874;82;21703;-58
2023/09/22 02:26:15;;;;;;;16.12;10.78;;;;;;;12.95;66.12;101142.83;1742511;82;21253;-59
2023/09/22 02:29:20;;;;;;;16.85;10.20;;;;;;;12.93;66.17;101143.50;1742779;81;21210;-60
2023/09/22 02:32:26;;;;;;;15.88;10.82;;;;;;;12.92;66.24;101151.92;1742940;80;21715;-58
2023/09/22 02:35:33;;;;;;;13.88;10.85;;;;;;;12.89;66.29;101146.78;1741720;80;21715;-60
2023/09/22 02:38:39;;;;;;;13.93;10.38;;;;;;;12.87;66.40;101145.58;1742388;82;21207;-60
2023/09/22 02:41:46;;;;;;;15.55;11.25;;;;;;;12.86;66.40;101141.63;1741570;82;21202;-59
2023/09/22 02:44:53;;;;;;;14.68;10.50;;;;;;;12.81;66.42;101142.11;1742987;80;21253;-60
2023/09/22 02:48:00;;;;;;;17.70;10.88;;;;;;;12.79;66.42;101146.08;1742812;80;21226;-61
2023/09/22 02:51:07;;;;;;;17.23;10.93;;;;;;;12.74;66.44;101145.73;1742936;80;21222;-61
2023/09/22 02:54:16;;;;;;;14.03;10.88;;;;;;;12.71;66.51;101145.57;1742871;80;21719;-61
2023/09/22 02:57:22;;;;;;;16.45;11.08;;;;;;;12.70;66.61;101148.48;1742952;81;21202;-57
2023/09/22 03:00:29;;;;;;;14.78;10.80;;;;;;;12.66;66.65;101149.34;1742906;82;21628;-57
2023/09/22 03:03:36;;;;;;;19.42;12.63;;;;;;;12.66;66.79;101149.34;1742848;82;21295;-56
2023/09/22 03:06:42;;;;;;;15.10;11.38;;;;;;;12.64;66.81;101149.14;1742841;80;21209;-57
2023/09/22 03:09:49;;;;;;;16.57;11.10;;;;;;;12.59;66.78;101152.95;1734081;80;21901;-56
2023/09/22 03:12:58;;;;;;;16.60;12.37;;;;;;;12.58;66.96;101150.70;1726984;82;21323;-55
2023/09/22 03:16:05;;;;;;;17.00;12.53;;;;;;;12.57;67.00;101149.00;1711497;84;21200;-56
2023/09/22 03:19:12;;;;;;;22.65;12.65;;;;;;;12.56;67.13;101157.41;1708470;83;21779;-57
2023/09/22 03:22:18;;;;;;;16.80;12.50;;;;;;;12.56;67.21;101163.73;1729407;81;21374;-57
2023/09/22 03:25:24;;;;;;;20.52;12.63;;;;;;;12.55;67.26;101160.66;1711347;84;21211;-56
2023/09/22 03:28:30;;;;;;;16.95;12.58;;;;;;;12.54;67.29;101163.58;1737013;82;21378;-57
2023/09/22 03:31:38;;;;;;;16.37;12.88;;;;;;;12.52;67.42;101158.25;1692093;83;21353;-57
2023/09/22 03:34:44;;;;;;;20.35;12.63;;;;;;;12.53;67.50;101165.95;1704419;84;21847;-56
2023/09/22 03:37:52;;;;;;;17.60;13.90;;;;;;;12.54;67.57;101169.91;1710700;82;21298;-57
2023/09/22 03:41:00;;;;;;;17.15;12.50;;;;;;;12.54;67.64;101167.16;1711462;84;21855;-56
2023/09/22 03:44:07;;;;;;;17.65;14.03;;;;;;;12.54;67.67;101167.16;1711488;84;21824;-57
2023/09/22 03:47:12;;;;;;;19.45;13.53;;;;;;;12.54;67.74;101174.56;1704481;84;21440;-57
2023/09/22 03:50:20;;;;;;;21.57;12.90;;;;;;;12.54;67.85;101169.91;1712599;82;21180;-57
2023/09/22 03:53:27;;;;;;;21.07;14.10;;;;;;;12.57;67.89;101170.10;1736976;82;21338;-57
2023/09/22 03:56:37;;;;;;;17.20;12.75;;;;;;;12.56;67.91;101180.22;1717555;83;21227;-57
2023/09/22 03:59:41;;;;;;;17.42;13.25;;;;;;;12.56;67.99;101178.84;1730368;81;21243;-57
2023/09/22 04:02:47;;;;;;;20.43;13.55;;;;;;;12.60;68.11;101173.88;1732183;81;21207;-57
2023/09/22 04:05:53;;;;;;;25.62;14.40;;;;;;;12.63;68.25;101184.02;1732613;83;21219;-56
2023/09/22 04:08:58;;;;;;;22.95;14.40;;;;;;;12.65;68.24;101183.34;1732889;81;21239;-57
2023/09/22 04:12:05;;;;;;;21.85;13.98;;;;;;;12.67;68.29;101174.39;1734711;82;21385;-55
2023/09/22 04:15:13;;;;;;;19.85;13.32;;;;;;;12.70;68.37;101182.30;1734574;82;21396;-57
2023/09/22 04:18:21;;;;;;;20.57;13.25;;;;;;;12.73;68.43;101185.23;1714537;82;21350;-56
2023/09/22 04:21:26;;;;;;;19.25;13.78;;;;;;;12.77;68.50;101178.35;1733155;80;21353;-59
2023/09/22 04:24:32;;;;;;;23.15;15.03;;;;;;;12.80;68.56;101182.13;1712979;84;21397;-59
2023/09/22 04:27:43;;;;;;;23.25;13.75;;;;;;;12.85;68.65;101187.98;1713563;83;21343;-58
2023/09/22 04:30:48;;;;;;;23.47;14.93;;;;;;;12.89;68.75;101191.58;1712719;84;21345;-58
2023/09/22 04:33:54;;;;;;;20.02;14.33;;;;;;;12.94;68.81;101193.31;1713605;80;21458;-56
2023/09/22 04:36:59;;;;;;;24.70;14.87;;;;;;;13.01;68.86;101191.64;1713725;80;21525;-57
2023/09/22 04:40:23;;;;;;;23.15;15.35;;;;;;;13.06;68.96;101196.11;1712763;82;21366;-56
2023/09/22 04:43:20;;;;;;;25.30;14.70;;;;;;;13.11;69.07;101189.55;1717278;80;21728;-56
2023/09/22 04:46:25;;;;;;;19.95;14.05;;;;;;;13.20;69.15;101193.17;1741720;80;21215;-56
2023/09/22 04:49:32;;;;;;;19.02;14.43;;;;;;;13.26;69.21;101186.47;1740929;80;21223;-57
2023/09/22 04:52:38;;;;;;;26.73;15.78;;;;;;;13.33;69.30;101194.34;1734770;82;21799;-58
2023/09/22 04:55:44;;;;;;;27.15;14.85;;;;;;;13.43;69.42;101194.16;1741204;82;21779;-57
2023/09/22 04:58:53;;;;;;;26.62;15.65;;;;;;;13.52;69.51;101193.97;1739879;80;21221;-54
2023/09/22 05:01:59;;;;;;;26.35;15.90;;;;;;;13.63;69.60;101193.27;1734053;80;21223;-54
2023/09/22 05:05:06;;;;;;;21.60;14.73;;;;;;;13.74;69.68;101191.52;1735968;81;22098;-53
2023/09/22 05:08:17;;;;;;;35.78;19.05;;;;;;;13.83;69.77;101191.31;1728860;82;21251;-54
2023/09/22 05:11:30;;;;;;;24.20;13.85;;;;;;;13.92;69.86;101190.24;1688761;82;21318;-53
2023/09/22 05:14:37;;;;;;;19.98;13.72;;;;;;;14.03;69.91;101187.64;1737575;82;21238;-53
2023/09/22 05:17:45;;;;;;;25.02;14.20;;;;;;;14.14;69.99;101194.13;1741604;81;21203;-53
2023/09/22 05:20:51;;;;;;;18.48;13.53;;;;;;;14.23;70.07;101191.16;1743249;81;21203;-53
2023/09/22 05:23:57;;;;;;;23.75;13.32;;;;;;;14.35;70.15;101197.17;1719644;80;21191;-54
2023/09/22 05:27:04;;;;;;;23.32;14.78;;;;;;;14.45;70.19;101186.75;1726156;82;21257;-54
2023/09/22 05:30:11;;;;;;;24.37;13.08;;;;;;;14.56;70.22;101197.36;1725752;82;21231;-50
2023/09/22 05:33:20;;;;;;;16.95;12.82;;;;;;;14.66;70.28;101196.11;1710601;81;21229;-52
2023/09/22 05:36:30;;;;;;;16.77;13.53;;;;;;;14.79;70.38;101190.83;1722629;82;21915;-53
2023/09/22 05:39:38;;;;;;;17.85;12.58;;;;;;;14.92;70.42;101190.25;1735137;81;21452;-52
2023/09/22 05:42:46;;;;;;;19.65;12.98;;;;;;;15.03;70.42;101187.56;1711925;82;21219;-56
2023/09/22 05:45:52;;;;;;;17.80;12.75;;;;;;;15.12;70.44;101185.92;1731662;80;21243;-51
2023/09/22 05:48:58;;;;;;;17.48;12.70;;;;;;;15.21;70.45;101186.18;1719317;81;21375;-52
2023/09/22 05:52:04;;;;;;;16.32;11.70;;;;;;;15.33;70.48;101181.95;1730806;81;21298;-50
2023/09/22 05:55:10;;;;;;;17.15;11.45;;;;;;;15.43;70.48;101185.31;1736750;82;21184;-53
2023/09/22 05:58:19;;;;;;;17.45;11.70;;;;;;;15.55;70.53;101181.58;1704425;82;21199;-52
2023/09/22 06:01:25;;;;;;;14.28;11.60;;;;;;;15.65;70.55;101173.34;1739136;82;21239;-54
2023/09/22 06:04:32;;;;;;;19.62;11.55;;;;;;;15.76;70.57;101180.32;1731212;80;21852;-55
2023/09/22 06:07:38;;;;;;;25.57;15.78;;;;;;;15.87;70.58;101182.61;1733617;81;21194;-54
2023/09/22 06:10:44;;;;;;;18.80;12.37;;;;;;;15.98;70.60;101184.89;1725597;81;21208;-56
2023/09/22 06:13:50;;;;;;;20.45;11.80;;;;;;;16.08;70.62;101186.30;1740234;78;21212;-54
2023/09/22 06:16:57;;;;;;;16.05;10.82;;;;;;;16.21;70.65;101188.38;1714919;82;21223;-54
2023/09/22 06:20:15;;;;;;;21.10;10.68;;;;;;;16.33;70.66;101191.00;1713399;82;21226;-55
2023/09/22 06:23:13;;;;;;;13.72;10.28;;;;;;;16.44;70.68;101185.84;1734192;82;21982;-54
2023/09/22 06:26:19;;;;;;;14.70;10.23;;;;;;;16.56;70.71;101188.09;1732265;82;21418;-54
2023/09/22 06:29:26;;;;;;;16.05;10.28;;;;;;;16.69;70.72;101191.02;1725825;82;21374;-54
2023/09/22 06:32:32;;;;;;;13.08;10.03;;;;;;;16.81;70.79;101184.77;1728889;82;21752;-55
2023/09/22 06:35:41;;;;;;;22.75;10.35;;;;;;;16.94;70.76;101185.43;1729637;81;21259;-56
2023/09/22 06:38:56;;;;;;;15.95;9.83;;;;;;;17.04;70.75;101179.92;1713460;82;21255;-55
2023/09/22 06:42:02;;;;;;;16.07;9.95;;;;;;;17.16;70.69;101182.98;1690610;82;21215;-55
2023/09/22 06:45:09;;;;;;;15.43;10.13;;;;;;;17.26;70.67;101188.53;1701821;83;21804;-55
2023/09/22 06:48:17;;;;;;;16.20;10.23;;;;;;;17.36;70.66;101172.96;1717707;82;21211;-54
2023/09/22 06:51:23;;;;;;;15.20;9.95;;;;;;;17.47;70.62;101180.20;1725647;82;21357;-55
2023/09/22 06:54:29;;;;;;;12.55;9.40;;;;;;;17.58;70.57;101175.48;1715452;82;21196;-54
2023/09/22 06:57:36;;;;;;;17.35;9.00;;;;;;;17.69;70.57;101176.86;1728062;82;21353;-55
2023/09/22 07:00:43;;;;;;;13.68;8.48;;;;;;;17.81;70.61;101173.32;1711610;81;21804;-54
2023/09/22 07:03:51;;;;;;;13.28;8.53;;;;;;;17.94;70.59;101171.16;1721335;83;21820;-55
2023/09/22 07:06:59;;;;;;;20.35;11.55;;;;;;;18.07;70.59;101174.53;1731948;81;21748;-55
2023/09/22 07:10:12;;;;;;;17.12;8.90;;;;;;;18.18;70.55;101173.42;1715326;81;21838;-55
2023/09/22 07:13:30;;;;;;;15.75;8.53;;;;;;;18.29;70.48;101169.20;1731561;82;21454;-55
2023/09/22 07:16:57;;;;;;;22.25;8.28;;;;;;;18.40;70.43;101165.86;1702743;82;21660;-57
2023/09/22 07:20:04;;;;;;;14.55;9.10;;;;;;;18.52;70.41;101164.22;1707462;82;21775;-54
2023/09/22 07:23:10;;;;;;;15.55;8.45;;;;;;;18.63;70.38;101171.38;1725516;81;21192;-54
2023/09/22 07:26:19;;;;;;;15.88;8.40;;;;;;;18.75;70.30;101166.09;1726858;81;21251;-54
2023/09/22 07:29:27;;;;;;;17.95;8.00;;;;;;;18.85;70.25;101169.31;1722285;82;21223;-55
2023/09/22 07:32:34;;;;;;;14.00;7.65;;;;;;;18.98;70.27;101170.18;1726530;82;21782;-54
2023/09/22 07:35:44;;;;;;;14.87;8.18;;;;;;;19.10;70.23;101173.20;1712267;82;21299;-55
2023/09/22 07:38:50;;;;;;;14.78;7.70;;;;;;;19.19;70.12;101169.14;1712823;81;21216;-55
2023/09/22 07:41:56;;;;;;;30.52;19.37;;;;;;;19.26;69.96;101170.88;1725177;81;21284;-54
2023/09/22 07:45:03;;;;;;;13.05;9.98;;;;;;;19.36;69.91;101171.00;1709771;83;21934;-54
2023/09/22 07:48:08;;;;;;;14.38;7.92;;;;;;;19.46;69.84;101160.30;1721523;82;21286;-55
2023/09/22 07:51:16;;;;;;;17.75;7.80;;;;;;;19.55;69.83;101163.20;1722133;81;21749;-54
2023/09/22 07:54:21;;;;;;;9.60;7.55;;;;;;;19.66;69.79;101166.19;1725302;81;21243;-52
2023/09/22 07:57:31;;;;;;;16.07;8.15;;;;;;;19.77;69.70;101168.83;1725552;81;21191;-52
2023/09/22 08:00:38;;;;;;;14.47;7.58;;;;;;;19.86;69.61;101159.19;1731800;81;21227;-53
2023/09/22 08:03:44;;;;;;;12.28;7.40;;;;;;;19.94;69.50;101152.00;1724838;82;21208;-52
2023/09/22 08:06:52;;;;;;;12.43;7.33;;;;;;;20.03;69.47;101155.72;1729445;81;21232;-53
2023/09/22 08:10:00;;;;;;;13.88;8.05;;;;;;;20.12;69.40;101151.61;1728959;81;21243;-51
2023/09/22 08:13:08;;;;;;;18.77;7.95;;;;;;;20.22;69.33;101144.23;1728672;81;21200;-53
2023/09/22 08:16:16;;;;;;;12.55;6.95;;;;;;;20.31;69.18;101145.72;1728826;79;21227;-52
2023/09/22 08:19:22;;;;;;;12.43;7.62;;;;;;;20.40;69.08;101140.20;1734486;81;21236;-49
2023/09/22 08:22:28;;;;;;;12.23;7.20;;;;;;;20.50;69.06;101141.42;1734417;82;21350;-52
2023/09/22 08:25:34;;;;;;;14.03;7.33;;;;;;;20.61;69.00;101137.11;1737340;80;21367;-51
2023/09/22 08:28:42;;;;;;;10.75;7.50;;;;;;;20.69;68.89;101138.23;1726302;80;21884;-53
2023/09/22 08:31:49;;;;;;;15.18;8.05;;;;;;;20.78;68.75;101144.71;1732513;82;21215;-58
2023/09/22 08:34:55;;;;;;;13.78;7.87;;;;;;;20.88;68.68;101127.52;1730167;81;21207;-53
2023/09/22 08:38:05;;;;;;;11.35;7.55;;;;;;;20.98;68.54;101132.63;1734341;81;21181;-52
2023/09/22 08:41:08;;;;;;;12.93;7.28;;;;;;;21.08;68.44;101121.81;1732395;81;21863;-51
2023/09/22 08:44:07;;;;;;;11.53;7.50;;;;;;;21.20;68.40;101122.24;1729378;82;21785;-51
2023/09/22 08:47:18;;;;;;;13.78;9.05;;;;;;;21.32;68.34;101119.05;1719471;81;21725;-52
2023/09/22 08:50:27;;;;;;;10.23;7.45;;;;;;;21.46;68.27;101125.34;1726820;81;21234;-51
2023/09/22 08:53:32;;;;;;;10.13;7.22;;;;;;;21.55;68.09;101131.78;1738853;81;21343;-52
2023/09/22 08:56:37;;;;;;;14.98;7.10;;;;;;;21.63;67.93;101123.66;1747198;81;21236;-49
2023/09/22 08:59:42;;;;;;;15.15;6.92;;;;;;;21.71;67.75;101117.27;1731552;80;21259;-53
2023/09/22 09:02:50;;;;;;;18.40;11.95;;;;;;;21.80;67.62;101118.69;1727993;80;22080;-56
2023/09/22 09:05:58;;;;;;;25.62;16.45;;;;;;;21.92;67.53;101109.88;1737426;81;21192;-57
2023/09/22 09:09:14;;;;;;;10.43;6.83;;;;;;;22.04;67.43;101112.19;1714965;83;22206;-57
2023/09/22 09:12:28;;;;;;;17.67;7.15;;;;;;;22.16;67.37;101114.53;1695637;83;21314;-58
2023/09/22 09:15:36;;;;;;;12.40;7.78;;;;;;;22.32;67.27;101116.36;1714246;83;21195;-55
2023/09/22 09:18:42;;;;;;;14.83;6.37;;;;;;;22.43;67.09;101108.59;1732876;78;21266;-55
2023/09/22 09:22:09;;;;;;;11.55;6.30;;;;;;;22.53;66.86;101106.99;1715062;83;21405;-56
2023/09/22 09:25:18;;;;;;;12.13;6.12;;;;;;;22.63;66.73;101108.65;1698653;83;21226;-56
2023/09/22 09:28:26;;;;;;;13.68;6.37;;;;;;;22.75;66.55;101102.58;1744152;81;21192;-55
2023/09/22 09:31:51;;;;;;;17.40;6.22;;;;;;;22.86;66.35;101105.09;1743659;81;21397;-56
2023/09/22 09:34:58;;;;;;;18.10;6.08;;;;;;;22.96;66.17;101102.58;1742100;81;21172;-55
2023/09/22 09:38:10;;;;;;;12.43;6.08;;;;;;;23.05;65.95;101107.59;1743761;81;21311;-56
2023/09/22 09:41:16;;;;;;;10.18;5.45;;;;;;;23.19;65.85;101102.61;1720447;81;21366;-58
2023/09/22 09:44:22;;;;;;;10.65;5.45;;;;;;;23.35;65.75;101110.33;1745026;82;21304;-56
2023/09/22 09:47:37;;;;;;;12.45;6.12;;;;;;;23.47;65.54;101108.37;1745207;81;21907;-57
2023/09/22 09:50:43;;;;;;;10.15;6.22;;;;;;;23.60;65.28;101099.22;1745281;82;21258;-56
2023/09/22 09:53:54;;;;;;;18.80;8.08;;;;;;;23.68;64.93;101102.72;1743298;81;21401;-56
2023/09/22 09:57:01;;;;;;;14.85;6.05;;;;;;;23.75;64.67;101099.27;1738383;80;22090;-56
2023/09/22 10:00:19;;;;;;;14.00;5.67;;;;;;;23.86;64.55;101096.47;1732435;81;21227;-53
2023/09/22 10:03:23;;;;;;;13.00;6.40;;;;;;;23.98;64.36;101097.31;1721730;81;21580;-59
2023/09/22 10:06:29;;;;;;;12.88;5.90;;;;;;;24.07;64.09;101095.00;1752208;80;21754;-58
2023/09/22 10:09:38;;;;;;;12.58;6.35;;;;;;;24.16;63.88;101091.57;1766388;80;21310;-58
2023/09/22 10:12:47;;;;;;;11.97;5.45;;;;;;;24.23;63.62;101085.27;1740368;81;21875;-55
2023/09/22 10:16:13;;;;;;;9.35;5.58;;;;;;;24.32;63.37;101085.20;1736175;81;21226;-55
2023/09/22 10:19:21;;;;;;;13.78;5.12;;;;;;;24.39;63.12;101085.02;1738370;80;21875;-54
2023/09/22 10:22:29;;;;;;;14.78;5.83;;;;;;;24.49;62.90;101081.04;1738747;80;21537;-55
2023/09/22 10:25:39;;;;;;;10.68;4.95;;;;;;;24.59;62.69;101084.87;1739410;80;21558;-55
2023/09/22 10:28:46;;;;;;;10.68;5.00;;;;;;;24.69;62.46;101080.05;1737016;80;21179;-56
2023/09/22 10:32:23;;;;;;;14.90;5.05;;;;;;;24.82;62.20;101072.20;1738464;80;21243;-53
2023/09/22 10:35:47;;;;;;;10.58;5.08;;;;;;;24.95;61.93;101074.69;1735811;80;21323;-56
2023/09/22 10:39:03;;;;;;;13.15;4.58;;;;;;;25.11;61.64;101066.53;1727562;81;21200;-55
2023/09/22 10:42:08;;;;;;;9.38;4.95;;;;;;;25.21;61.33;101073.72;1726218;81;21191;-56
2023/09/22 10:45:10;;;;;;;8.50;4.92;;;;;;;25.33;61.07;101072.52;1718630;81;21183;-56
2023/09/22 10:48:18;;;;;;;9.53;4.70;;;;;;;25.48;60.94;101080.37;1710838;84;22147;-56
2023/09/22 10:51:23;;;;;;;9.43;4.92;;;;;;;25.53;60.46;101082.69;1719717;80;21469;-55
2023/09/22 10:54:29;;;;;;;15.63;4.75;;;;;;;25.61;60.15;101071.61;1722551;82;21824;-55
2023/09/22 10:57:36;;;;;;;11.57;5.15;;;;;;;25.67;59.78;101074.77;1726587;81;21240;-56
2023/09/22 11:00:45;;;;;;;10.58;5.28;;;;;;;25.82;59.59;101071.63;1734627;82;21577;-57
2023/09/22 11:04:04;;;;;;;7.62;4.78;;;;;;;25.93;59.18;101075.41;1731027;82;21478;-53
2023/09/22 11:07:09;;;;;;;12.23;5.20;;;;;;;25.91;58.73;101067.26;1716409;81;21247;-55
2023/09/22 11:10:16;;;;;;;13.62;4.80;;;;;;;26.02;58.52;101067.72;1743857;81;21214;-55
2023/09/22 11:13:22;;;;;;;10.32;5.17;;;;;;;26.11;58.18;101070.39;1743609;80;21192;-55
2023/09/22 11:16:29;;;;;;;8.93;4.70;;;;;;;26.35;58.09;101077.41;1724590;81;21227;-56
2023/09/22 11:19:35;;;;;;;8.83;4.83;;;;;;;26.47;57.61;101070.25;1742211;79;21389;-58
2023/09/22 11:22:36;;;;;;;7.28;4.50;;;;;;;26.59;57.23;101058.88;1736407;81;21317;-56
2023/09/22 11:25:42;;;;;;;10.40;5.22;;;;;;;26.58;56.71;101066.98;1736420;81;21199;-56
2023/09/22 11:28:51;;;;;;;10.13;5.55;;;;;;;26.51;56.28;101060.75;1732421;80;21211;-55
2023/09/22 11:32:00;;;;;;;11.93;5.28;;;;;;;26.48;56.03;101062.14;1732862;82;21831;-54
2023/09/22 11:35:06;;;;;;;8.73;4.83;;;;;;;26.68;56.03;101066.59;1720252;81;21819;-57
2023/09/22 11:38:40;;;;;;;12.90;4.95;;;;;;;26.85;55.76;101053.27;1743220;81;21721;-55
2023/09/22 11:41:48;;;;;;;8.05;4.83;;;;;;;26.82;55.25;101052.95;1708605;81;21192;-54
2023/09/22 11:44:57;;;;;;;10.55;5.03;;;;;;;26.88;55.03;101052.73;1714932;82;21397;-57
2023/09/22 11:48:12;;;;;;;18.10;7.22;;;;;;;27.01;54.82;101054.26;1712499;81;21207;-54
2023/09/22 11:51:19;;;;;;;11.05;6.58;;;;;;;27.02;54.36;101051.76;1740863;81;21641;-55
2023/09/22 11:54:32;;;;;;;8.60;4.58;;;;;;;26.94;53.90;101053.65;1732777;81;21209;-56
2023/09/22 11:57:37;;;;;;;12.18;5.03;;;;;;;26.86;53.47;101059.17;1730913;80;21270;-55
2023/09/22 12:00:43;;;;;;;;;;;;;;;26.79;53.13;101056.30;1744618;81;21716;-54
2023/09/22 12:03:37;;;;;;;13.48;5.58;;;;;;;26.73;52.84;101053.16;1753948;80;20308;-55
2023/09/22 12:06:35;;;;;;;10.00;5.25;;;;;;;26.68;52.62;101052.55;1730569;81;21211;-55
2023/09/22 12:09:42;;;;;;;14.58;5.08;;;;;;;26.70;52.43;101053.69;1734240;81;21211;-54
2023/09/22 12:12:47;;;;;;;10.53;5.10;;;;;;;26.75;52.25;101050.35;1735556;80;21238;-56
2023/09/22 12:15:53;;;;;;;8.03;5.20;;;;;;;26.75;51.93;101046.72;1736872;80;21238;-55
2023/09/22 12:18:53;;;;;;;9.60;5.70;;;;;;;26.72;51.65;101042.45;1733810;81;21203;-55
2023/09/22 12:22:02;;;;;;;10.10;5.35;;;;;;;26.66;51.28;101050.55;1735050;79;21254;-55
2023/09/22 12:25:08;;;;;;;12.07;5.22;;;;;;;26.61;51.09;101040.63;1729471;81;21262;-55
2023/09/22 12:28:13;;;;;;;11.90;5.65;;;;;;;26.74;51.09;101045.00;1725295;81;21195;-53
2023/09/22 12:31:20;;;;;;;7.83;4.87;;;;;;;26.94;51.09;101044.64;1730943;81;21214;-56
2023/09/22 12:34:33;;;;;;;9.78;5.22;;;;;;;27.05;50.79;101038.56;1734804;81;21263;-53
2023/09/22 12:37:38;;;;;;;9.53;4.78;;;;;;;27.10;50.44;101033.81;1734220;81;21502;-55
2023/09/22 12:40:46;;;;;;;7.17;4.83;;;;;;;27.09;50.05;101034.09;1744391;80;21780;-59
2023/09/22 12:43:53;;;;;;;8.23;5.50;;;;;;;27.01;49.74;101037.39;1726051;81;21314;-55
2023/09/22 12:46:59;;;;;;;9.55;4.92;;;;;;;26.94;49.54;101039.02;1732076;81;21745;-55
2023/09/22 12:50:08;;;;;;;13.45;6.37;;;;;;;26.88;49.32;101038.69;1730685;81;21259;-56
2023/09/22 12:53:12;;;;;;;11.57;5.65;;;;;;;26.81;49.11;101032.45;1721240;82;21187;-56
2023/09/22 12:56:20;;;;;;;14.58;5.25;;;;;;;26.72;48.92;101033.20;1737769;81;21322;-56
2023/09/22 12:59:27;;;;;;;10.85;5.17;;;;;;;26.62;48.70;101043.75;1726917;81;21303;-55
2023/09/22 13:02:33;;;;;;;16.23;6.17;;;;;;;26.53;48.49;101043.08;1711456;84;21207;-53
2023/09/22 13:05:39;;;;;;;9.98;5.60;;;;;;;26.41;48.31;101039.88;1738647;81;21195;-59
2023/09/22 13:08:44;;;;;;;9.90;5.28;;;;;;;26.29;48.10;101035.52;1753511;81;21199;-55
2023/09/22 13:11:49;;;;;;;10.60;5.62;;;;;;;26.17;47.90;101039.86;1761199;81;21258;-56
2023/09/22 13:15:00;;;;;;;11.08;6.75;;;;;;;26.07;47.77;101036.06;1738303;82;21192;-57
2023/09/22 13:18:07;;;;;;;17.70;7.05;;;;;;;25.99;47.63;101034.53;1720914;82;21204;-59
2023/09/22 13:21:22;;;;;;;11.12;6.65;;;;;;;25.97;47.55;101030.31;1742201;81;21747;-61
2023/09/22 13:24:27;;;;;;;11.57;6.07;;;;;;;25.94;47.45;101022.41;1742674;81;21192;-60
2023/09/22 13:27:33;;;;;;;8.85;5.33;;;;;;;25.96;47.37;101018.22;1743506;82;21168;-61
2023/09/22 13:30:39;;;;;;;10.08;5.58;;;;;;;26.05;47.34;101021.46;1742685;82;21211;-62
2023/09/22 13:33:47;;;;;;;8.60;5.30;;;;;;;26.17;47.34;101026.38;1740131;80;21228;-60
2023/09/22 13:36:52;;;;;;;11.60;5.42;;;;;;;26.28;47.31;101021.17;1744116;81;21248;-60
2023/09/22 13:39:58;;;;;;;14.20;5.50;;;;;;;26.37;47.24;101023.79;1753368;81;21205;-59
2023/09/22 13:43:06;;;;;;;8.38;5.22;;;;;;;26.42;47.09;101015.42;1754536;81;21272;-60
2023/09/22 13:46:21;;;;;;;10.23;5.12;;;;;;;26.42;46.94;101016.28;1754288;81;21222;-59
2023/09/22 13:49:28;;;;;;;9.55;5.80;;;;;;;26.43;46.89;101009.54;1756146;81;21195;-60
2023/09/22 13:52:35;;;;;;;13.28;5.00;;;;;;;26.44;46.76;101012.66;1746953;81;21231;-59
2023/09/22 13:55:43;;;;;;;15.85;5.45;;;;;;;26.45;46.64;101017.16;1743784;81;21759;-61
2023/09/22 13:58:49;;;;;;;9.05;5.28;;;;;;;26.46;46.56;101016.61;1764285;81;21175;-60
2023/09/22 14:01:54;;;;;;;9.00;4.90;;;;;;;26.46;46.48;101013.80;1763232;81;21207;-61
2023/09/22 14:05:15;;;;;;;8.68;5.00;;;;;;;26.45;46.37;101010.67;1767952;81;21188;-60
2023/09/22 14:08:22;;;;;;;10.23;5.77;;;;;;;26.44;46.25;101019.69;1757493;81;21215;-61
2023/09/22 14:11:30;;;;;;;10.55;6.28;;;;;;;26.41;46.09;101012.34;1728506;81;21193;-62
2023/09/22 14:14:37;;;;;;;15.48;6.28;;;;;;;26.34;45.99;101012.54;1755889;80;21851;-62
2023/09/22 14:17:43;;;;;;;8.58;5.70;;;;;;;26.29;45.93;101013.88;1715406;81;21704;-61
2023/09/22 14:20:49;;;;;;;6.95;5.37;;;;;;;26.24;45.84;101012.99;1739073;82;21198;-61